sensor_id;sensor_type;location;lat;lon;timestamp;P1;durP1;ratioP1;P2;durP2;ratioP2
37097;SDS011;63608;49.572;12.348;2023-03-01T00:00:51;20.87;;;14.30;;
37097;SDS011;63608;49.572;12.348;2023-03-01T00:02:54;19.90;;;14.00;;
37097;SDS011;63608;49.572;12.348;2023-03-01T00:04:57;23.60;;;15.27;;
37097;SDS011;63608;49.572;12.348;2023-03-01T00:07:00;20.80;;;13.87;;
37097;SDS011;63608;49.572;12.348;2023-03-01T00:09:08;23.50;;;14.60;;
37097;SDS011;63608;49.572;12.348;2023-03-01T00:11:11;22.90;;;14.50;;
37097;SDS011;63608;49.572;12.348;2023-03-01T00:13:17;19.70;;;13.30;;
37097;SDS011;63608;49.572;12.348;2023-03-01T00:15:41;24.90;;;14.60;;
37097;SDS011;63608;49.572;12.348;2023-03-01T00:17:44;19.30;;;14.00;;
37097;SDS011;63608;49.572;12.348;2023-03-01T00:19:48;22.17;;;14.30;;
37097;SDS011;63608;49.572;12.348;2023-03-01T00:21:50;21.27;;;14.37;;
37097;SDS011;63608;49.572;12.348;2023-03-01T00:23:56;20.70;;;14.63;;
37097;SDS011;63608;49.572;12.348;2023-03-01T00:26:00;22.77;;;14.60;;
37097;SDS011;63608;49.572;12.348;2023-03-01T00:28:02;23.50;;;15.30;;
37097;SDS011;63608;49.572;12.348;2023-03-01T00:30:10;22.80;;;14.47;;
37097;SDS011;63608;49.572;12.348;2023-03-01T00:32:13;26.87;;;15.50;;
37097;SDS011;63608;49.572;12.348;2023-03-01T00:34:15;25.93;;;15.17;;
37097;SDS011;63608;49.572;12.348;2023-03-01T00:36:19;26.83;;;15.93;;
37097;SDS011;63608;49.572;12.348;2023-03-01T00:38:23;26.90;;;17.77;;
37097;SDS011;63608;49.572;12.348;2023-03-01T00:40:25;45.80;;;25.43;;
37097;SDS011;63608;49.572;12.348;2023-03-01T00:42:31;53.40;;;27.27;;
37097;SDS011;63608;49.572;12.348;2023-03-01T00:44:33;49.93;;;27.03;;
37097;SDS011;63608;49.572;12.348;2023-03-01T00:46:36;58.03;;;30.40;;
37097;SDS011;63608;49.572;12.348;2023-03-01T00:48:38;51.60;;;28.30;;
37097;SDS011;63608;49.572;12.348;2023-03-01T00:50:40;41.10;;;23.50;;
37097;SDS011;63608;49.572;12.348;2023-03-01T00:52:43;26.40;;;17.27;;
37097;SDS011;63608;49.572;12.348;2023-03-01T00:54:51;25.77;;;16.30;;
37097;SDS011;63608;49.572;12.348;2023-03-01T00:56:54;25.27;;;16.97;;
37097;SDS011;63608;49.572;12.348;2023-03-01T01:01:11;20.97;;;14.47;;
37097;SDS011;63608;49.572;12.348;2023-03-01T01:03:36;21.93;;;14.23;;
37097;SDS011;63608;49.572;12.348;2023-03-01T01:05:42;22.43;;;13.40;;
37097;SDS011;63608;49.572;12.348;2023-03-01T01:07:45;21.00;;;14.23;;
37097;SDS011;63608;49.572;12.348;2023-03-01T01:09:47;20.97;;;13.30;;
37097;SDS011;63608;49.572;12.348;2023-03-01T01:11:50;22.53;;;14.10;;
37097;SDS011;63608;49.572;12.348;2023-03-01T01:14:11;20.07;;;13.60;;
37097;SDS011;63608;49.572;12.348;2023-03-01T01:16:17;21.90;;;13.40;;
37097;SDS011;63608;49.572;12.348;2023-03-01T01:18:38;20.33;;;13.53;;
37097;SDS011;63608;49.572;12.348;2023-03-01T01:20:41;19.37;;;13.27;;
37097;SDS011;63608;49.572;12.348;2023-03-01T01:22:45;20.83;;;13.77;;
37097;SDS011;63608;49.572;12.348;2023-03-01T01:24:48;20.10;;;13.87;;
37097;SDS011;63608;49.572;12.348;2023-03-01T01:26:50;20.83;;;14.77;;
37097;SDS011;63608;49.572;12.348;2023-03-01T01:28:53;20.13;;;12.97;;
37097;SDS011;63608;49.572;12.348;2023-03-01T01:30:59;19.37;;;13.97;;
37097;SDS011;63608;49.572;12.348;2023-03-01T01:33:06;22.57;;;13.90;;
37097;SDS011;63608;49.572;12.348;2023-03-01T01:35:09;21.60;;;13.93;;
37097;SDS011;63608;49.572;12.348;2023-03-01T01:37:11;22.87;;;14.63;;
37097;SDS011;63608;49.572;12.348;2023-03-01T01:39:16;23.00;;;14.57;;
37097;SDS011;63608;49.572;12.348;2023-03-01T01:41:19;19.77;;;13.87;;
37097;SDS011;63608;49.572;12.348;2023-03-01T01:43:24;30.60;;;15.10;;
37097;SDS011;63608;49.572;12.348;2023-03-01T01:45:29;22.00;;;14.20;;
37097;SDS011;63608;49.572;12.348;2023-03-01T01:47:37;21.70;;;14.23;;
37097;SDS011;63608;49.572;12.348;2023-03-01T01:50:00;19.70;;;13.40;;
37097;SDS011;63608;49.572;12.348;2023-03-01T01:52:09;19.07;;;13.17;;
37097;SDS011;63608;49.572;12.348;2023-03-01T01:54:13;22.73;;;14.17;;
37097;SDS011;63608;49.572;12.348;2023-03-01T01:56:17;20.17;;;13.20;;
37097;SDS011;63608;49.572;12.348;2023-03-01T01:58:24;20.47;;;13.40;;
37097;SDS011;63608;49.572;12.348;2023-03-01T02:00:28;19.87;;;13.20;;
37097;SDS011;63608;49.572;12.348;2023-03-01T02:02:32;19.43;;;13.27;;
37097;SDS011;63608;49.572;12.348;2023-03-01T02:04:34;18.83;;;12.80;;
37097;SDS011;63608;49.572;12.348;2023-03-01T02:06:39;22.80;;;14.30;;
37097;SDS011;63608;49.572;12.348;2023-03-01T02:08:48;19.93;;;13.40;;
37097;SDS011;63608;49.572;12.348;2023-03-01T02:10:52;18.93;;;12.73;;
37097;SDS011;63608;49.572;12.348;2023-03-01T02:12:59;20.17;;;13.03;;
37097;SDS011;63608;49.572;12.348;2023-03-01T02:15:02;21.27;;;13.17;;
37097;SDS011;63608;49.572;12.348;2023-03-01T02:17:21;21.60;;;12.90;;
37097;SDS011;63608;49.572;12.348;2023-03-01T02:19:27;19.97;;;13.40;;
37097;SDS011;63608;49.572;12.348;2023-03-01T02:21:37;21.40;;;14.20;;
37097;SDS011;63608;49.572;12.348;2023-03-01T02:23:45;19.30;;;13.40;;
37097;SDS011;63608;49.572;12.348;2023-03-01T02:25:54;21.37;;;13.77;;
37097;SDS011;63608;49.572;12.348;2023-03-01T02:27:58;21.80;;;14.20;;
37097;SDS011;63608;49.572;12.348;2023-03-01T02:30:05;20.53;;;14.00;;
37097;SDS011;63608;49.572;12.348;2023-03-01T02:32:10;20.70;;;13.73;;
37097;SDS011;63608;49.572;12.348;2023-03-01T02:34:14;24.03;;;14.40;;
37097;SDS011;63608;49.572;12.348;2023-03-01T02:36:17;21.77;;;14.20;;
37097;SDS011;63608;49.572;12.348;2023-03-01T02:38:21;23.47;;;14.03;;
37097;SDS011;63608;49.572;12.348;2023-03-01T02:40:24;27.77;;;13.90;;
37097;SDS011;63608;49.572;12.348;2023-03-01T02:42:30;21.43;;;14.00;;
37097;SDS011;63608;49.572;12.348;2023-03-01T02:44:35;22.20;;;14.63;;
37097;SDS011;63608;49.572;12.348;2023-03-01T02:46:47;21.00;;;14.03;;
37097;SDS011;63608;49.572;12.348;2023-03-01T02:48:52;21.60;;;14.70;;
37097;SDS011;63608;49.572;12.348;2023-03-01T02:51:02;24.07;;;14.70;;
37097;SDS011;63608;49.572;12.348;2023-03-01T02:53:10;21.93;;;14.27;;
37097;SDS011;63608;49.572;12.348;2023-03-01T02:55:15;22.37;;;14.17;;
37097;SDS011;63608;49.572;12.348;2023-03-01T02:57:20;21.43;;;14.50;;
37097;SDS011;63608;49.572;12.348;2023-03-01T02:59:24;22.13;;;14.30;;
37097;SDS011;63608;49.572;12.348;2023-03-01T03:01:39;22.60;;;14.00;;
37097;SDS011;63608;49.572;12.348;2023-03-01T03:03:43;21.30;;;14.20;;
37097;SDS011;63608;49.572;12.348;2023-03-01T03:05:47;24.60;;;15.60;;
37097;SDS011;63608;49.572;12.348;2023-03-01T03:07:50;23.90;;;14.77;;
37097;SDS011;63608;49.572;12.348;2023-03-01T03:09:52;26.00;;;15.90;;
37097;SDS011;63608;49.572;12.348;2023-03-01T03:11:55;29.60;;;18.30;;
37097;SDS011;63608;49.572;12.348;2023-03-01T03:14:02;24.40;;;15.73;;
37097;SDS011;63608;49.572;12.348;2023-03-01T03:16:05;24.40;;;15.57;;
37097;SDS011;63608;49.572;12.348;2023-03-01T03:18:09;23.33;;;14.23;;
37097;SDS011;63608;49.572;12.348;2023-03-01T03:22:25;25.10;;;15.30;;
37097;SDS011;63608;49.572;12.348;2023-03-01T03:24:29;24.60;;;15.07;;
37097;SDS011;63608;49.572;12.348;2023-03-01T03:26:37;23.80;;;15.27;;
37097;SDS011;63608;49.572;12.348;2023-03-01T03:28:41;24.47;;;14.77;;
37097;SDS011;63608;49.572;12.348;2023-03-01T03:30:43;25.10;;;15.47;;
37097;SDS011;63608;49.572;12.348;2023-03-01T03:32:47;24.93;;;16.10;;
37097;SDS011;63608;49.572;12.348;2023-03-01T03:34:53;24.50;;;14.90;;
37097;SDS011;63608;49.572;12.348;2023-03-01T03:36:59;24.23;;;15.30;;
37097;SDS011;63608;49.572;12.348;2023-03-01T03:39:01;23.60;;;15.93;;
37097;SDS011;63608;49.572;12.348;2023-03-01T03:41:06;24.60;;;15.87;;
37097;SDS011;63608;49.572;12.348;2023-03-01T03:43:10;22.80;;;15.10;;
37097;SDS011;63608;49.572;12.348;2023-03-01T03:45:14;23.57;;;14.80;;
37097;SDS011;63608;49.572;12.348;2023-03-01T03:47:17;21.70;;;15.10;;
37097;SDS011;63608;49.572;12.348;2023-03-01T03:49:19;22.80;;;14.83;;
37097;SDS011;63608;49.572;12.348;2023-03-01T03:51:21;25.23;;;15.50;;
37097;SDS011;63608;49.572;12.348;2023-03-01T03:53:28;22.63;;;14.70;;
37097;SDS011;63608;49.572;12.348;2023-03-01T03:55:36;23.07;;;15.60;;
37097;SDS011;63608;49.572;12.348;2023-03-01T03:57:40;23.67;;;14.80;;
37097;SDS011;63608;49.572;12.348;2023-03-01T03:59:51;23.40;;;14.10;;
37097;SDS011;63608;49.572;12.348;2023-03-01T04:01:57;22.27;;;14.83;;
37097;SDS011;63608;49.572;12.348;2023-03-01T04:04:00;23.47;;;14.53;;
37097;SDS011;63608;49.572;12.348;2023-03-01T04:06:04;22.43;;;14.20;;
37097;SDS011;63608;49.572;12.348;2023-03-01T04:08:08;23.10;;;14.27;;
37097;SDS011;63608;49.572;12.348;2023-03-01T04:10:13;23.90;;;15.13;;
37097;SDS011;63608;49.572;12.348;2023-03-01T04:12:18;21.97;;;14.97;;
37097;SDS011;63608;49.572;12.348;2023-03-01T04:14:25;25.03;;;15.80;;
37097;SDS011;63608;49.572;12.348;2023-03-01T04:16:27;22.90;;;14.53;;
37097;SDS011;63608;49.572;12.348;2023-03-01T04:18:29;22.13;;;14.50;;
37097;SDS011;63608;49.572;12.348;2023-03-01T04:20:38;22.87;;;14.57;;
37097;SDS011;63608;49.572;12.348;2023-03-01T04:22:41;22.33;;;14.57;;
37097;SDS011;63608;49.572;12.348;2023-03-01T04:24:47;25.23;;;15.13;;
37097;SDS011;63608;49.572;12.348;2023-03-01T04:26:54;21.30;;;14.40;;
37097;SDS011;63608;49.572;12.348;2023-03-01T04:28:57;24.87;;;15.10;;
37097;SDS011;63608;49.572;12.348;2023-03-01T04:31:02;23.97;;;14.60;;
37097;SDS011;63608;49.572;12.348;2023-03-01T04:33:13;25.60;;;14.87;;
37097;SDS011;63608;49.572;12.348;2023-03-01T04:35:16;24.10;;;14.93;;
37097;SDS011;63608;49.572;12.348;2023-03-01T04:37:26;22.77;;;15.00;;
37097;SDS011;63608;49.572;12.348;2023-03-01T04:39:30;25.33;;;15.07;;
37097;SDS011;63608;49.572;12.348;2023-03-01T04:41:32;27.53;;;15.93;;
37097;SDS011;63608;49.572;12.348;2023-03-01T04:43:38;25.17;;;15.07;;
37097;SDS011;63608;49.572;12.348;2023-03-01T04:45:43;25.30;;;15.57;;
37097;SDS011;63608;49.572;12.348;2023-03-01T04:50:07;26.20;;;15.17;;
37097;SDS011;63608;49.572;12.348;2023-03-01T04:52:11;22.40;;;14.10;;
37097;SDS011;63608;49.572;12.348;2023-03-01T04:54:13;26.33;;;15.40;;
37097;SDS011;63608;49.572;12.348;2023-03-01T04:58:32;28.83;;;16.60;;
37097;SDS011;63608;49.572;12.348;2023-03-01T05:00:36;23.70;;;16.00;;
37097;SDS011;63608;49.572;12.348;2023-03-01T05:02:38;25.00;;;15.40;;
37097;SDS011;63608;49.572;12.348;2023-03-01T05:04:41;26.20;;;16.00;;
37097;SDS011;63608;49.572;12.348;2023-03-01T05:06:44;26.40;;;16.20;;
37097;SDS011;63608;49.572;12.348;2023-03-01T05:08:46;26.73;;;16.07;;
37097;SDS011;63608;49.572;12.348;2023-03-01T05:10:49;24.80;;;16.77;;
37097;SDS011;63608;49.572;12.348;2023-03-01T05:12:54;26.63;;;16.70;;
37097;SDS011;63608;49.572;12.348;2023-03-01T05:14:57;27.10;;;16.90;;
37097;SDS011;63608;49.572;12.348;2023-03-01T05:17:01;28.40;;;17.17;;
37097;SDS011;63608;49.572;12.348;2023-03-01T05:19:05;24.40;;;15.23;;
37097;SDS011;63608;49.572;12.348;2023-03-01T05:21:12;27.50;;;17.70;;
37097;SDS011;63608;49.572;12.348;2023-03-01T05:23:17;27.90;;;16.53;;
37097;SDS011;63608;49.572;12.348;2023-03-01T05:25:20;25.03;;;16.53;;
37097;SDS011;63608;49.572;12.348;2023-03-01T05:27:25;27.27;;;16.43;;
37097;SDS011;63608;49.572;12.348;2023-03-01T05:29:27;26.17;;;16.33;;
37097;SDS011;63608;49.572;12.348;2023-03-01T05:31:34;29.13;;;17.43;;
37097;SDS011;63608;49.572;12.348;2023-03-01T05:33:40;31.40;;;17.63;;
37097;SDS011;63608;49.572;12.348;2023-03-01T05:35:43;24.77;;;16.47;;
37097;SDS011;63608;49.572;12.348;2023-03-01T05:37:48;29.93;;;17.17;;
37097;SDS011;63608;49.572;12.348;2023-03-01T05:39:52;26.90;;;16.50;;
37097;SDS011;63608;49.572;12.348;2023-03-01T05:41:54;28.17;;;17.23;;
37097;SDS011;63608;49.572;12.348;2023-03-01T05:43:57;27.20;;;16.53;;
37097;SDS011;63608;49.572;12.348;2023-03-01T05:45:59;28.57;;;17.80;;
37097;SDS011;63608;49.572;12.348;2023-03-01T05:48:02;29.93;;;17.70;;
37097;SDS011;63608;49.572;12.348;2023-03-01T05:50:09;28.30;;;17.00;;
37097;SDS011;63608;49.572;12.348;2023-03-01T05:52:21;28.10;;;16.70;;
37097;SDS011;63608;49.572;12.348;2023-03-01T05:54:26;28.37;;;17.77;;
37097;SDS011;63608;49.572;12.348;2023-03-01T05:56:32;24.47;;;15.87;;
37097;SDS011;63608;49.572;12.348;2023-03-01T05:58:34;27.93;;;17.03;;
37097;SDS011;63608;49.572;12.348;2023-03-01T06:00:38;25.50;;;16.40;;
37097;SDS011;63608;49.572;12.348;2023-03-01T06:02:43;29.17;;;18.33;;
37097;SDS011;63608;49.572;12.348;2023-03-01T06:04:46;30.83;;;16.60;;
37097;SDS011;63608;49.572;12.348;2023-03-01T06:06:53;33.50;;;17.50;;
37097;SDS011;63608;49.572;12.348;2023-03-01T06:08:55;29.07;;;17.37;;
37097;SDS011;63608;49.572;12.348;2023-03-01T06:10:57;28.77;;;17.73;;
37097;SDS011;63608;49.572;12.348;2023-03-01T06:13:01;32.20;;;18.47;;
37097;SDS011;63608;49.572;12.348;2023-03-01T06:15:03;28.50;;;17.53;;
37097;SDS011;63608;49.572;12.348;2023-03-01T06:17:07;33.20;;;18.40;;
37097;SDS011;63608;49.572;12.348;2023-03-01T06:19:09;29.90;;;17.80;;
37097;SDS011;63608;49.572;12.348;2023-03-01T06:21:13;26.90;;;16.90;;
37097;SDS011;63608;49.572;12.348;2023-03-01T06:23:17;31.40;;;17.80;;
37097;SDS011;63608;49.572;12.348;2023-03-01T06:25:21;31.43;;;17.87;;
37097;SDS011;63608;49.572;12.348;2023-03-01T06:27:24;28.20;;;18.13;;
37097;SDS011;63608;49.572;12.348;2023-03-01T06:29:27;31.67;;;18.30;;
37097;SDS011;63608;49.572;12.348;2023-03-01T06:31:29;30.83;;;18.60;;
37097;SDS011;63608;49.572;12.348;2023-03-01T06:33:32;30.90;;;19.43;;
37097;SDS011;63608;49.572;12.348;2023-03-01T06:35:34;31.53;;;19.20;;
37097;SDS011;63608;49.572;12.348;2023-03-01T06:37:37;30.10;;;19.03;;
37097;SDS011;63608;49.572;12.348;2023-03-01T06:39:42;30.20;;;18.13;;
37097;SDS011;63608;49.572;12.348;2023-03-01T06:41:45;29.17;;;17.97;;
37097;SDS011;63608;49.572;12.348;2023-03-01T06:43:47;31.43;;;18.40;;
37097;SDS011;63608;49.572;12.348;2023-03-01T06:45:49;29.10;;;18.03;;
37097;SDS011;63608;49.572;12.348;2023-03-01T06:47:52;31.10;;;18.43;;
37097;SDS011;63608;49.572;12.348;2023-03-01T06:49:59;31.03;;;19.20;;
37097;SDS011;63608;49.572;12.348;2023-03-01T06:52:02;30.70;;;19.33;;
37097;SDS011;63608;49.572;12.348;2023-03-01T06:54:08;32.97;;;19.67;;
37097;SDS011;63608;49.572;12.348;2023-03-01T06:56:11;36.00;;;20.83;;
37097;SDS011;63608;49.572;12.348;2023-03-01T06:58:19;33.23;;;19.20;;
37097;SDS011;63608;49.572;12.348;2023-03-01T07:00:22;34.10;;;19.07;;
37097;SDS011;63608;49.572;12.348;2023-03-01T07:02:30;31.63;;;19.90;;
37097;SDS011;63608;49.572;12.348;2023-03-01T07:04:33;29.70;;;17.97;;
37097;SDS011;63608;49.572;12.348;2023-03-01T07:06:44;31.37;;;18.93;;
37097;SDS011;63608;49.572;12.348;2023-03-01T07:08:54;32.57;;;18.97;;
37097;SDS011;63608;49.572;12.348;2023-03-01T07:11:00;33.63;;;18.40;;
37097;SDS011;63608;49.572;12.348;2023-03-01T07:13:13;28.77;;;17.90;;
37097;SDS011;63608;49.572;12.348;2023-03-01T07:15:16;33.30;;;19.70;;
37097;SDS011;63608;49.572;12.348;2023-03-01T07:17:21;30.10;;;18.23;;
37097;SDS011;63608;49.572;12.348;2023-03-01T07:19:26;35.20;;;19.77;;
37097;SDS011;63608;49.572;12.348;2023-03-01T07:21:34;36.00;;;18.20;;
37097;SDS011;63608;49.572;12.348;2023-03-01T07:23:38;32.17;;;18.77;;
37097;SDS011;63608;49.572;12.348;2023-03-01T07:25:40;29.30;;;18.37;;
37097;SDS011;63608;49.572;12.348;2023-03-01T07:27:43;31.40;;;18.40;;
37097;SDS011;63608;49.572;12.348;2023-03-01T07:29:55;30.43;;;18.43;;
37097;SDS011;63608;49.572;12.348;2023-03-01T07:31:58;31.23;;;18.63;;
37097;SDS011;63608;49.572;12.348;2023-03-01T07:34:03;30.87;;;17.80;;
37097;SDS011;63608;49.572;12.348;2023-03-01T07:36:06;39.40;;;20.43;;
37097;SDS011;63608;49.572;12.348;2023-03-01T07:38:09;30.63;;;17.23;;
37097;SDS011;63608;49.572;12.348;2023-03-01T07:40:11;30.13;;;17.90;;
37097;SDS011;63608;49.572;12.348;2023-03-01T07:42:14;30.40;;;18.50;;
37097;SDS011;63608;49.572;12.348;2023-03-01T07:44:16;27.70;;;17.00;;
37097;SDS011;63608;49.572;12.348;2023-03-01T07:46:22;30.07;;;18.63;;
37097;SDS011;63608;49.572;12.348;2023-03-01T07:48:24;29.60;;;18.10;;
37097;SDS011;63608;49.572;12.348;2023-03-01T07:50:30;28.80;;;17.30;;
37097;SDS011;63608;49.572;12.348;2023-03-01T07:52:44;30.30;;;17.97;;
37097;SDS011;63608;49.572;12.348;2023-03-01T07:54:47;32.30;;;18.97;;
37097;SDS011;63608;49.572;12.348;2023-03-01T07:56:51;28.10;;;18.00;;
37097;SDS011;63608;49.572;12.348;2023-03-01T07:58:54;27.50;;;16.60;;
37097;SDS011;63608;49.572;12.348;2023-03-01T08:01:00;28.57;;;18.27;;
37097;SDS011;63608;49.572;12.348;2023-03-01T08:03:05;32.50;;;17.87;;
37097;SDS011;63608;49.572;12.348;2023-03-01T08:05:08;31.63;;;19.10;;
37097;SDS011;63608;49.572;12.348;2023-03-01T08:07:10;29.47;;;18.37;;
37097;SDS011;63608;49.572;12.348;2023-03-01T08:09:12;32.63;;;19.73;;
37097;SDS011;63608;49.572;12.348;2023-03-01T08:11:15;31.23;;;17.73;;
37097;SDS011;63608;49.572;12.348;2023-03-01T08:13:18;30.17;;;18.10;;
37097;SDS011;63608;49.572;12.348;2023-03-01T08:15:24;31.27;;;17.80;;
37097;SDS011;63608;49.572;12.348;2023-03-01T08:17:26;28.57;;;18.07;;
37097;SDS011;63608;49.572;12.348;2023-03-01T08:19:31;28.90;;;18.33;;
37097;SDS011;63608;49.572;12.348;2023-03-01T08:21:36;30.60;;;17.50;;
37097;SDS011;63608;49.572;12.348;2023-03-01T08:23:38;28.97;;;18.10;;
37097;SDS011;63608;49.572;12.348;2023-03-01T08:25:46;29.63;;;18.13;;
37097;SDS011;63608;49.572;12.348;2023-03-01T08:27:49;29.57;;;18.80;;
37097;SDS011;63608;49.572;12.348;2023-03-01T08:29:51;29.67;;;17.83;;
37097;SDS011;63608;49.572;12.348;2023-03-01T08:31:54;29.83;;;17.97;;
37097;SDS011;63608;49.572;12.348;2023-03-01T08:33:57;31.53;;;19.20;;
37097;SDS011;63608;49.572;12.348;2023-03-01T08:36:05;28.60;;;17.57;;
37097;SDS011;63608;49.572;12.348;2023-03-01T08:38:09;31.17;;;19.20;;
37097;SDS011;63608;49.572;12.348;2023-03-01T08:40:11;32.03;;;18.17;;
37097;SDS011;63608;49.572;12.348;2023-03-01T08:42:14;30.90;;;19.47;;
37097;SDS011;63608;49.572;12.348;2023-03-01T08:44:19;29.37;;;18.77;;
37097;SDS011;63608;49.572;12.348;2023-03-01T08:46:21;27.97;;;18.50;;
37097;SDS011;63608;49.572;12.348;2023-03-01T08:48:24;31.27;;;19.13;;
37097;SDS011;63608;49.572;12.348;2023-03-01T08:50:26;31.73;;;18.93;;
37097;SDS011;63608;49.572;12.348;2023-03-01T08:52:39;32.17;;;18.97;;
37097;SDS011;63608;49.572;12.348;2023-03-01T08:54:41;32.40;;;19.47;;
37097;SDS011;63608;49.572;12.348;2023-03-01T08:56:50;31.53;;;19.37;;
37097;SDS011;63608;49.572;12.348;2023-03-01T08:58:52;32.60;;;18.00;;
37097;SDS011;63608;49.572;12.348;2023-03-01T09:00:56;32.80;;;19.47;;
37097;SDS011;63608;49.572;12.348;2023-03-01T09:02:59;31.97;;;19.80;;
37097;SDS011;63608;49.572;12.348;2023-03-01T09:05:02;28.20;;;18.30;;
37097;SDS011;63608;49.572;12.348;2023-03-01T09:07:09;28.43;;;18.30;;
37097;SDS011;63608;49.572;12.348;2023-03-01T09:09:18;28.97;;;17.67;;
37097;SDS011;63608;49.572;12.348;2023-03-01T09:11:21;35.53;;;19.33;;
37097;SDS011;63608;49.572;12.348;2023-03-01T09:13:24;31.20;;;18.87;;
37097;SDS011;63608;49.572;12.348;2023-03-01T09:15:27;33.43;;;19.43;;
37097;SDS011;63608;49.572;12.348;2023-03-01T09:17:34;29.20;;;19.03;;
37097;SDS011;63608;49.572;12.348;2023-03-01T09:19:37;28.77;;;17.90;;
37097;SDS011;63608;49.572;12.348;2023-03-01T09:21:43;30.13;;;18.33;;
37097;SDS011;63608;49.572;12.348;2023-03-01T09:23:52;36.40;;;20.80;;
37097;SDS011;63608;49.572;12.348;2023-03-01T09:25:57;31.00;;;19.00;;
37097;SDS011;63608;49.572;12.348;2023-03-01T09:28:01;38.70;;;20.40;;
37097;SDS011;63608;49.572;12.348;2023-03-01T09:30:04;30.63;;;19.17;;
37097;SDS011;63608;49.572;12.348;2023-03-01T09:32:09;31.40;;;20.30;;
37097;SDS011;63608;49.572;12.348;2023-03-01T09:34:11;30.40;;;19.40;;
37097;SDS011;63608;49.572;12.348;2023-03-01T09:36:16;30.90;;;19.00;;
37097;SDS011;63608;49.572;12.348;2023-03-01T09:38:25;30.17;;;19.50;;
37097;SDS011;63608;49.572;12.348;2023-03-01T09:40:28;28.43;;;18.70;;
37097;SDS011;63608;49.572;12.348;2023-03-01T09:42:33;31.10;;;18.50;;
37097;SDS011;63608;49.572;12.348;2023-03-01T09:44:39;26.60;;;18.47;;
37097;SDS011;63608;49.572;12.348;2023-03-01T09:46:46;31.37;;;18.60;;
37097;SDS011;63608;49.572;12.348;2023-03-01T09:48:50;31.10;;;18.90;;
37097;SDS011;63608;49.572;12.348;2023-03-01T09:50:58;28.70;;;19.80;;
37097;SDS011;63608;49.572;12.348;2023-03-01T09:53:15;30.40;;;19.40;;
37097;SDS011;63608;49.572;12.348;2023-03-01T09:55:20;29.57;;;18.97;;
37097;SDS011;63608;49.572;12.348;2023-03-01T09:57:30;31.23;;;20.13;;
37097;SDS011;63608;49.572;12.348;2023-03-01T09:59:44;28.90;;;18.20;;
37097;SDS011;63608;49.572;12.348;2023-03-01T10:01:56;26.70;;;17.83;;
37097;SDS011;63608;49.572;12.348;2023-03-01T10:06:39;28.90;;;18.30;;
37097;SDS011;63608;49.572;12.348;2023-03-01T10:08:47;30.83;;;18.67;;
37097;SDS011;63608;49.572;12.348;2023-03-01T10:10:53;31.40;;;19.40;;
37097;SDS011;63608;49.572;12.348;2023-03-01T10:13:10;34.33;;;20.20;;
37097;SDS011;63608;49.572;12.348;2023-03-01T10:15:18;33.17;;;19.30;;
37097;SDS011;63608;49.572;12.348;2023-03-01T10:17:26;27.80;;;18.47;;
37097;SDS011;63608;49.572;12.348;2023-03-01T10:19:34;30.00;;;19.87;;
37097;SDS011;63608;49.572;12.348;2023-03-01T10:21:39;26.60;;;18.20;;
37097;SDS011;63608;49.572;12.348;2023-03-01T10:23:49;30.43;;;20.17;;
37097;SDS011;63608;49.572;12.348;2023-03-01T10:25:56;28.37;;;17.90;;
37097;SDS011;63608;49.572;12.348;2023-03-01T10:28:13;29.07;;;18.73;;
37097;SDS011;63608;49.572;12.348;2023-03-01T10:30:19;26.60;;;18.30;;
37097;SDS011;63608;49.572;12.348;2023-03-01T10:32:25;26.13;;;17.60;;
37097;SDS011;63608;49.572;12.348;2023-03-01T10:34:29;27.50;;;18.33;;
37097;SDS011;63608;49.572;12.348;2023-03-01T10:36:33;25.10;;;17.77;;
37097;SDS011;63608;49.572;12.348;2023-03-01T10:38:50;27.97;;;16.37;;
37097;SDS011;63608;49.572;12.348;2023-03-01T10:40:58;27.77;;;18.23;;
37097;SDS011;63608;49.572;12.348;2023-03-01T10:43:03;27.30;;;18.70;;
37097;SDS011;63608;49.572;12.348;2023-03-01T10:45:16;27.87;;;18.43;;
37097;SDS011;63608;49.572;12.348;2023-03-01T10:47:27;27.13;;;17.70;;
37097;SDS011;63608;49.572;12.348;2023-03-01T10:49:30;27.80;;;18.23;;
37097;SDS011;63608;49.572;12.348;2023-03-01T10:51:33;26.90;;;18.50;;
37097;SDS011;63608;49.572;12.348;2023-03-01T10:53:36;28.47;;;19.23;;
37097;SDS011;63608;49.572;12.348;2023-03-01T10:55:39;30.63;;;19.60;;
37097;SDS011;63608;49.572;12.348;2023-03-01T10:57:43;28.27;;;18.70;;
37097;SDS011;63608;49.572;12.348;2023-03-01T11:00:10;26.93;;;18.23;;
37097;SDS011;63608;49.572;12.348;2023-03-01T11:03:11;26.83;;;18.67;;
37097;SDS011;63608;49.572;12.348;2023-03-01T11:05:22;33.13;;;21.03;;
37097;SDS011;63608;49.572;12.348;2023-03-01T11:07:25;30.00;;;19.30;;
37097;SDS011;63608;49.572;12.348;2023-03-01T11:09:31;29.27;;;17.73;;
37097;SDS011;63608;49.572;12.348;2023-03-01T11:11:38;28.30;;;19.23;;
37097;SDS011;63608;49.572;12.348;2023-03-01T11:13:47;28.23;;;18.23;;
37097;SDS011;63608;49.572;12.348;2023-03-01T11:15:58;29.20;;;19.20;;
37097;SDS011;63608;49.572;12.348;2023-03-01T11:18:02;29.13;;;18.27;;
37097;SDS011;63608;49.572;12.348;2023-03-01T11:20:23;25.77;;;18.43;;
37097;SDS011;63608;49.572;12.348;2023-03-01T11:22:28;28.27;;;19.00;;
37097;SDS011;63608;49.572;12.348;2023-03-01T11:24:33;26.90;;;18.17;;
37097;SDS011;63608;49.572;12.348;2023-03-01T11:26:39;28.70;;;18.70;;
37097;SDS011;63608;49.572;12.348;2023-03-01T11:28:45;26.10;;;17.43;;
37097;SDS011;63608;49.572;12.348;2023-03-01T11:30:57;27.90;;;17.57;;
37097;SDS011;63608;49.572;12.348;2023-03-01T11:33:10;29.70;;;17.93;;
37097;SDS011;63608;49.572;12.348;2023-03-01T11:35:22;25.73;;;18.50;;
37097;SDS011;63608;49.572;12.348;2023-03-01T11:37:29;26.70;;;17.93;;
37097;SDS011;63608;49.572;12.348;2023-03-01T11:39:43;28.93;;;18.50;;
37097;SDS011;63608;49.572;12.348;2023-03-01T11:41:52;27.80;;;18.53;;
37097;SDS011;63608;49.572;12.348;2023-03-01T11:44:05;28.03;;;18.17;;
37097;SDS011;63608;49.572;12.348;2023-03-01T11:46:35;28.27;;;18.27;;
37097;SDS011;63608;49.572;12.348;2023-03-01T11:49:01;27.40;;;18.00;;
37097;SDS011;63608;49.572;12.348;2023-03-01T11:51:12;26.23;;;17.17;;
37097;SDS011;63608;49.572;12.348;2023-03-01T11:53:32;27.80;;;17.63;;
37097;SDS011;63608;49.572;12.348;2023-03-01T11:58:27;26.00;;;18.00;;
37097;SDS011;63608;49.572;12.348;2023-03-01T12:00:44;25.83;;;17.90;;
37097;SDS011;63608;49.572;12.348;2023-03-01T12:03:02;29.63;;;18.00;;
37097;SDS011;63608;49.572;12.348;2023-03-01T12:05:24;26.90;;;17.70;;
37097;SDS011;63608;49.572;12.348;2023-03-01T12:08:00;24.67;;;16.57;;
37097;SDS011;63608;49.572;12.348;2023-03-01T12:12:29;24.43;;;17.07;;
37097;SDS011;63608;49.572;12.348;2023-03-01T12:14:42;25.50;;;17.60;;
37097;SDS011;63608;49.572;12.348;2023-03-01T12:16:59;23.63;;;16.90;;
37097;SDS011;63608;49.572;12.348;2023-03-01T12:19:21;25.33;;;18.20;;
37097;SDS011;63608;49.572;12.348;2023-03-01T12:21:49;25.57;;;16.77;;
37097;SDS011;63608;49.572;12.348;2023-03-01T12:24:44;24.40;;;17.30;;